Hauptseite
METAR-TAF:

METAR-TAF

Flughäfen :

City-Airport Mannheim

Mannheim, Deutschland

Breite: 49-28-21N, Länge: 008-30-56E, Höhe: 100 m

Beobachtung

Neuester Wetterbericht von vor 2 Stunden und 47 Minuten, um 21:50 UTC
Wind 2 kt aus unterschiedlichen Richtungen
Temperatur 7°C
Luftfeuchtigkeit 100%
Luftdruck 1028 hPa
Sichtweite: 7000 m
Durchbrochene Bewölkung in der Höhe von 600 ft
Durchbrochene Bewölkung in der Höhe von 800 ft

METAR: EDFM 142150Z VRB02KT 7000 BKN006 BKN008 07/07 Q1028

Zeit: 01:37 (00:37 UTC)

Prognose

Neuester Wetterbericht von vor 7 Stunden und 37 Minuten, um 17:00 UTC
Gültige Prognose vom 14 um 18 UTC bis 14 um 21 UTC
Wind 4 kt aus Nord
Sichtweite: 0700 m
Geschlossene Wolkendecke in der Höhe von 100 ft
Nebel
Zeitweise
vom 14 um 18 UTC bis 14 um 21 UTC
Sichtweite: 0200 m
Nebel

TAF: EDFM 141700Z 1418/1421 01004KT 0700 FG OVC001 TEMPO 1418/1421 0200 FG

Wetterbeobachtungen und Prognosen von mehr als 4000 Flughäfen (METAR und TAF Bericht).

Die verfügbaren Stationen werden durch gelbe und rote Markierungen auf der Karte dargestellt.

Führen Sie die Maus auf sie, um den Namen der Station zu sehen.

Darauf klicken, um die Beobachtung von Wetterbeobachtungen und Prognosen zu sehen.

Um die Karte zu ändern : klicken Sie auf den grünen Tasten mit einem schwarzen Kreuz Zum Vergrößern, auf den grünen Button mit einem Gedankenstrich zu verkleinern, oder auf die grünen Pfeile für benachbarte Karten.


METAR-TAF: